Time;durP1;ratioP1;P1;durP2;ratioP2;P2;SDS_P1;SDS_P2;PMS_P1;PMS_P2;Temp;Humidity;BMP_temperature;BMP_pressure;BME280_temperature;BME280_humidity;BME280_pressure;Samples;Min_cycle;Max_cycle;Signal;HPM_P1;HPM_P2
2022/09/17 00:00:11;;;;;;;1.13;1.13;;;;;;;;;;4995863;28;20515;-68
2022/09/17 00:02:37;;;;;;;2.70;1.40;;;;;;;;;;4996050;28;20560;-68
2022/09/17 00:05:03;;;;;;;3.80;1.40;;;;;;;;;;4995791;28;20556;-67
2022/09/17 00:07:29;;;;;;;1.53;1.43;;;;;;;;;;4995784;28;20417;-67
2022/09/17 00:09:55;;;;;;;5.80;1.50;;;;;;;;;;4995676;28;20410;-68
2022/09/17 00:12:21;;;;;;;3.00;1.67;;;;;;;;;;4995625;28;20461;-68
2022/09/17 00:14:47;;;;;;;3.27;1.43;;;;;;;;;;4978080;28;20438;-67
2022/09/17 00:17:13;;;;;;;3.53;1.57;;;;;;;;;;4978064;28;20417;-67
2022/09/17 00:19:39;;;;;;;3.40;1.20;;;;;;;;;;4978086;28;20516;-68
2022/09/17 00:22:05;;;;;;;1.23;1.23;;;;;;;;;;4994397;28;20517;-68
2022/09/17 00:24:31;;;;;;;2.53;1.00;;;;;;;;;;4995427;28;20503;-68
2022/09/17 00:26:57;;;;;;;3.43;0.67;;;;;;;;;;4995315;28;20410;-68
2022/09/17 00:29:23;;;;;;;2.87;0.80;;;;;;;;;;4995366;28;20472;-68
2022/09/17 00:31:49;;;;;;;9.20;1.10;;;;;;;;;;4995216;28;20445;-67
2022/09/17 00:34:15;;;;;;;1.47;0.60;;;;;;;;;;4995149;28;20465;-68
2022/09/17 00:36:41;;;;;;;2.83;0.70;;;;;;;;;;4995081;28;20418;-68
2022/09/17 00:39:08;;;;;;;0.70;0.70;;;;;;;;;;4977726;28;20433;-68
2022/09/17 00:41:35;;;;;;;1.80;0.90;;;;;;;;;;4995114;28;20410;-68
2022/09/17 00:44:21;;;;;;;7.93;1.07;;;;;;;;;;4995077;28;20449;-68
2022/09/17 00:46:48;;;;;;;2.90;0.80;;;;;;;;;;4994147;28;20409;-68
2022/09/17 00:49:28;;;;;;;3.33;0.80;;;;;;;;;;4994992;28;20249;-68
2022/09/17 00:51:54;;;;;;;3.17;0.80;;;;;;;;;;4994793;28;20475;-68
2022/09/17 00:54:21;;;;;;;1.10;0.90;;;;;;;;;;4995050;28;20568;-68
2022/09/17 00:56:47;;;;;;;3.30;1.00;;;;;;;;;;4994797;28;20502;-68
2022/09/17 00:59:14;;;;;;;1.23;1.13;;;;;;;;;;4994758;28;20469;-68
2022/09/17 01:01:40;;;;;;;0.80;0.80;;;;;;;;;;4994740;28;20402;-68
2022/09/17 01:04:06;;;;;;;0.80;0.80;;;;;;;;;;4977275;28;20413;-68
2022/09/17 01:06:51;;;;;;;3.23;0.97;;;;;;;;;;4994655;28;20476;-68
2022/09/17 01:09:23;;;;;;;5.30;1.03;;;;;;;;;;4994697;28;20420;-68
2022/09/17 01:11:49;;;;;;;1.33;0.87;;;;;;;;;;4977126;28;20893;-68
2022/09/17 01:14:28;;;;;;;0.97;0.97;;;;;;;;;;4994384;28;20461;-68
2022/09/17 01:17:14;;;;;;;1.03;0.70;;;;;;;;;;4994415;28;20425;-68
2022/09/17 01:19:49;;;;;;;1.47;0.70;;;;;;;;;;4994287;28;20437;-68
2022/09/17 01:22:16;;;;;;;0.87;0.87;;;;;;;;;;4994648;28;20456;-68
2022/09/17 01:24:47;;;;;;;1.37;0.83;;;;;;;;;;4994397;28;20441;-68
2022/09/17 01:27:32;;;;;;;2.20;1.00;;;;;;;;;;4994286;28;20406;-68
2022/09/17 01:30:16;;;;;;;4.63;0.80;;;;;;;;;;4976824;28;20421;-68
2022/09/17 01:32:46;;;;;;;0.90;0.70;;;;;;;;;;4993811;28;20511;-68
2022/09/17 01:35:32;;;;;;;0.60;0.60;;;;;;;;;;4994236;28;20516;-68
2022/09/17 01:38:01;;;;;;;0.60;0.60;;;;;;;;;;4994145;28;20460;-68
2022/09/17 01:40:31;;;;;;;1.07;0.90;;;;;;;;;;4994143;28;20425;-68
2022/09/17 01:42:59;;;;;;;4.30;0.97;;;;;;;;;;4994244;28;20460;-68
2022/09/17 01:45:46;;;;;;;0.93;0.80;;;;;;;;;;4976616;28;20440;-68
2022/09/17 01:48:17;;;;;;;1.00;0.90;;;;;;;;;;4994007;28;20421;-68
2022/09/17 01:50:52;;;;;;;1.83;0.80;;;;;;;;;;4994059;28;20508;-68
2022/09/17 01:53:20;;;;;;;0.90;0.60;;;;;;;;;;4993777;28;20568;-68
2022/09/17 01:55:48;;;;;;;4.43;0.60;;;;;;;;;;4993968;28;20516;-67
2022/09/17 01:58:18;;;;;;;1.53;0.93;;;;;;;;;;4993932;28;20461;-67
2022/09/17 02:00:48;;;;;;;1.13;0.87;;;;;;;;;;4993962;28;20961;-67
2022/09/17 02:03:20;;;;;;;1.20;1.10;;;;;;;;;;4993912;28;20420;-68
2022/09/17 02:05:53;;;;;;;1.33;0.90;;;;;;;;;;4993891;28;20406;-68
2022/09/17 02:08:28;;;;;;;5.30;0.90;;;;;;;;;;4976467;28;20420;-68
2022/09/17 02:11:07;;;;;;;1.73;0.90;;;;;;;;;;4993858;28;20460;-67
2022/09/17 02:13:38;;;;;;;0.50;0.50;;;;;;;;;;4993741;28;20468;-68
2022/09/17 02:16:07;;;;;;;0.80;0.60;;;;;;;;;;4993722;28;20945;-68
2022/09/17 02:18:56;;;;;;;1.70;0.67;;;;;;;;;;4993843;28;20943;-67
2022/09/17 02:21:28;;;;;;;1.37;0.90;;;;;;;;;;4948794;28;20494;-67
2022/09/17 02:24:14;;;;;;;3.77;0.77;;;;;;;;;;4993620;28;20433;-68
2022/09/17 02:26:44;;;;;;;0.80;0.60;;;;;;;;;;4977220;28;20925;-68
2022/09/17 02:29:15;;;;;;;1.33;0.80;;;;;;;;;;4993760;28;20418;-68
2022/09/17 02:31:41;;;;;;;0.80;0.80;;;;;;;;;;4993545;28;21052;-68
2022/09/17 02:34:08;;;;;;;1.77;0.70;;;;;;;;;;4976072;28;20575;-68
2022/09/17 02:36:34;;;;;;;0.70;0.70;;;;;;;;;;4993713;28;20422;-68
2022/09/17 02:39:01;;;;;;;1.80;0.90;;;;;;;;;;4993610;28;20419;-68
2022/09/17 02:41:39;;;;;;;6.10;0.87;;;;;;;;;;4993823;28;20398;-68
2022/09/17 02:44:14;;;;;;;1.17;1.03;;;;;;;;;;4993575;28;20402;-68
2022/09/17 02:46:50;;;;;;;5.70;0.80;;;;;;;;;;4997094;28;20405;-68
2022/09/17 02:49:25;;;;;;;2.70;0.97;;;;;;;;;;4996827;28;20973;-68
2022/09/17 02:52:14;;;;;;;0.90;0.90;;;;;;;;;;4996960;28;20480;-67
2022/09/17 02:54:58;;;;;;;2.00;0.83;;;;;;;;;;4979542;28;20464;-68
2022/09/17 02:57:24;;;;;;;3.20;0.80;;;;;;;;;;4997085;28;20556;-67
2022/09/17 02:59:55;;;;;;;1.00;0.70;;;;;;;;;;4979589;28;20468;-68
2022/09/17 03:02:28;;;;;;;1.23;0.57;;;;;;;;;;4979546;28;20507;-68
2022/09/17 03:04:55;;;;;;;0.70;0.70;;;;;;;;;;4996965;28;20925;-68
2022/09/17 03:07:22;;;;;;;1.90;0.87;;;;;;;;;;4996945;28;20414;-68
2022/09/17 03:09:48;;;;;;;1.97;0.60;;;;;;;;;;4996931;28;20406;-68
2022/09/17 03:12:14;;;;;;;1.63;0.70;;;;;;;;;;4996744;28;20497;-68
2022/09/17 03:14:40;;;;;;;0.60;0.60;;;;;;;;;;4979259;28;20440;-68
2022/09/17 03:17:06;;;;;;;2.40;0.80;;;;;;;;;;4979272;28;20950;-68
2022/09/17 03:19:32;;;;;;;5.93;1.03;;;;;;;;;;4996898;28;20588;-68
2022/09/17 03:21:58;;;;;;;3.30;0.87;;;;;;;;;;4996678;28;20406;-68
2022/09/17 03:24:24;;;;;;;0.87;0.87;;;;;;;;;;4996442;28;20947;-68
2022/09/17 03:26:51;;;;;;;1.80;0.90;;;;;;;;;;4996364;28;20889;-68
2022/09/17 03:29:17;;;;;;;0.90;0.90;;;;;;;;;;4978887;28;20846;-68
2022/09/17 03:31:43;;;;;;;4.20;1.00;;;;;;;;;;4996434;28;20417;-68
2022/09/17 03:34:09;;;;;;;3.27;0.70;;;;;;;;;;4996457;28;20979;-68
2022/09/17 03:36:35;;;;;;;1.60;1.03;;;;;;;;;;4996357;28;20904;-68
2022/09/17 03:39:01;;;;;;;1.23;1.07;;;;;;;;;;4996294;28;20452;-68
2022/09/17 03:41:27;;;;;;;2.30;0.90;;;;;;;;;;4996489;28;20398;-68
2022/09/17 03:43:53;;;;;;;1.53;1.17;;;;;;;;;;4978754;28;20424;-68
2022/09/17 03:46:19;;;;;;;1.37;0.93;;;;;;;;;;4996366;28;20413;-68
2022/09/17 03:48:45;;;;;;;3.87;1.00;;;;;;;;;;4996090;28;20414;-68
2022/09/17 03:51:11;;;;;;;9.83;1.03;;;;;;;;;;4995953;28;20412;-68
2022/09/17 03:53:37;;;;;;;0.80;0.80;;;;;;;;;;4978382;28;20477;-68
2022/09/17 03:56:04;;;;;;;6.03;1.30;;;;;;;;;;4995780;28;20406;-68
2022/09/17 03:58:30;;;;;;;2.20;0.90;;;;;;;;;;4995928;28;20402;-68
2022/09/17 04:00:56;;;;;;;2.97;0.90;;;;;;;;;;4995880;28;20882;-68
2022/09/17 04:03:26;;;;;;;2.10;1.10;;;;;;;;;;4996185;28;20471;-67
2022/09/17 04:05:52;;;;;;;1.23;1.10;;;;;;;;;;4995841;28;20394;-68
2022/09/17 04:08:18;;;;;;;3.33;1.90;;;;;;;;;;4995784;28;20740;-68
2022/09/17 04:10:44;;;;;;;2.70;1.33;;;;;;;;;;4978285;28;20413;-69
2022/09/17 04:13:11;;;;;;;1.47;1.17;;;;;;;;;;4995588;28;20556;-68
2022/09/17 04:15:37;;;;;;;2.57;1.30;;;;;;;;;;4978263;28;20934;-69
2022/09/17 04:18:03;;;;;;;2.70;1.90;;;;;;;;;;4995618;28;20931;-69
2022/09/17 04:20:29;;;;;;;2.60;2.27;;;;;;;;;;4995573;28;20414;-68
2022/09/17 04:22:55;;;;;;;6.13;2.73;;;;;;;;;;4977946;28;20426;-68
2022/09/17 04:25:21;;;;;;;11.77;3.20;;;;;;;;;;4995466;28;20521;-68
2022/09/17 04:27:47;;;;;;;4.00;2.70;;;;;;;;;;4995425;28;20414;-68
2022/09/17 04:30:14;;;;;;;6.53;3.00;;;;;;;;;;4995281;28;20824;-67
2022/09/17 04:32:40;;;;;;;3.20;2.43;;;;;;;;;;4995214;28;20515;-68
2022/09/17 04:35:06;;;;;;;9.90;2.40;;;;;;;;;;4995196;28;20410;-68
2022/09/17 04:37:33;;;;;;;2.30;1.60;;;;;;;;;;4995231;28;20432;-68
2022/09/17 04:39:58;;;;;;;6.63;1.67;;;;;;;;;;4995149;28;20975;-67
2022/09/17 04:42:24;;;;;;;3.73;2.07;;;;;;;;;;4995137;28;20408;-68
2022/09/17 04:44:51;;;;;;;3.37;2.23;;;;;;;;;;4995091;28;20428;-68
2022/09/17 04:47:17;;;;;;;1.97;1.40;;;;;;;;;;4995054;28;20413;-67
2022/09/17 04:49:43;;;;;;;5.73;1.37;;;;;;;;;;4995043;28;20417;-67
2022/09/17 04:52:09;;;;;;;1.20;1.20;;;;;;;;;;4977308;28;20488;-67
2022/09/17 04:54:34;;;;;;;2.93;1.70;;;;;;;;;;4977510;28;20440;-67
2022/09/17 04:57:00;;;;;;;1.80;1.40;;;;;;;;;;4994898;28;20475;-67
2022/09/17 04:59:26;;;;;;;4.10;1.40;;;;;;;;;;4977403;28;20421;-67
2022/09/17 05:01:52;;;;;;;3.50;1.60;;;;;;;;;;4994736;28;20436;-67
2022/09/17 05:04:18;;;;;;;1.27;1.27;;;;;;;;;;4977371;28;20523;-67
2022/09/17 05:06:44;;;;;;;3.97;1.40;;;;;;;;;;4977030;28;20430;-67
2022/09/17 05:09:10;;;;;;;1.70;1.47;;;;;;;;;;4994586;28;20410;-67
2022/09/17 05:11:36;;;;;;;1.40;1.30;;;;;;;;;;4994650;28;20912;-67
2022/09/17 05:14:02;;;;;;;1.27;1.27;;;;;;;;;;4977077;28;20469;-67
2022/09/17 05:16:28;;;;;;;5.33;1.37;;;;;;;;;;4994504;28;20504;-67
2022/09/17 05:18:54;;;;;;;1.40;1.30;;;;;;;;;;4994458;28;20472;-67
2022/09/17 05:21:20;;;;;;;1.87;1.33;;;;;;;;;;4994698;28;20405;-66
2022/09/17 05:23:46;;;;;;;4.47;1.57;;;;;;;;;;4976896;28;20425;-67
2022/09/17 05:26:12;;;;;;;2.73;1.30;;;;;;;;;;4994414;28;20398;-67
2022/09/17 05:28:38;;;;;;;1.50;1.17;;;;;;;;;;4976851;28;20926;-68
2022/09/17 05:31:04;;;;;;;3.33;1.73;;;;;;;;;;4976807;28;20463;-67
2022/09/17 05:33:30;;;;;;;1.90;1.80;;;;;;;;;;4994183;28;20472;-68
2022/09/17 05:35:56;;;;;;;1.90;1.80;;;;;;;;;;4976774;28;20830;-68
2022/09/17 05:38:22;;;;;;;2.40;2.20;;;;;;;;;;4994177;28;20412;-67
2022/09/17 05:40:48;;;;;;;4.53;4.00;;;;;;;;;;4994113;28;20414;-68
2022/09/17 05:43:14;;;;;;;5.10;3.70;;;;;;;;;;4994086;28;20416;-67
2022/09/17 05:45:41;;;;;;;2.53;1.90;;;;;;;;;;4994108;28;20417;-69
2022/09/17 05:48:09;;;;;;;2.40;2.30;;;;;;;;;;4994092;28;20421;-67
2022/09/17 05:50:35;;;;;;;2.47;2.37;;;;;;;;;;4994013;28;20414;-67
2022/09/17 05:53:07;;;;;;;4.47;2.90;;;;;;;;;;4993642;28;20503;-67
2022/09/17 05:55:34;;;;;;;12.73;2.00;;;;;;;;;;4993931;28;20409;-68
2022/09/17 05:58:00;;;;;;;4.30;1.80;;;;;;;;;;4994025;28;20490;-68
2022/09/17 06:00:26;;;;;;;2.00;1.90;;;;;;;;;;4976527;28;20448;-67
2022/09/17 06:02:56;;;;;;;6.37;2.00;;;;;;;;;;4992785;28;20432;-68
2022/09/17 06:05:23;;;;;;;2.03;1.90;;;;;;;;;;4993955;28;20493;-68
2022/09/17 06:07:49;;;;;;;6.70;1.80;;;;;;;;;;4993897;28;20429;-69
2022/09/17 06:10:16;;;;;;;3.37;2.00;;;;;;;;;;4993745;28;20421;-68
2022/09/17 06:12:42;;;;;;;4.60;2.97;;;;;;;;;;4993716;28;20548;-69
2022/09/17 06:15:08;;;;;;;1.93;1.93;;;;;;;;;;4993814;28;20948;-69
2022/09/17 06:17:34;;;;;;;4.23;1.83;;;;;;;;;;4976365;28;20777;-69
2022/09/17 06:20:01;;;;;;;1.57;1.47;;;;;;;;;;4977924;28;20469;-70
2022/09/17 06:22:27;;;;;;;2.00;2.00;;;;;;;;;;4980270;28;20440;-69
2022/09/17 06:24:53;;;;;;;2.03;1.90;;;;;;;;;;4997594;28;20421;-70
2022/09/17 06:27:19;;;;;;;1.83;1.73;;;;;;;;;;4997615;28;20741;-70
2022/09/17 06:29:45;;;;;;;1.40;1.40;;;;;;;;;;4997551;28;20412;-68
2022/09/17 06:32:11;;;;;;;1.67;1.57;;;;;;;;;;4997350;28;20889;-69
2022/09/17 06:34:38;;;;;;;2.27;2.17;;;;;;;;;;4979940;28;20812;-70
2022/09/17 06:37:04;;;;;;;1.40;1.33;;;;;;;;;;4997518;28;20405;-69
2022/09/17 06:39:30;;;;;;;4.67;3.00;;;;;;;;;;4997416;28;20839;-69
2022/09/17 06:41:56;;;;;;;3.47;1.63;;;;;;;;;;4997317;28;20410;-69
2022/09/17 06:44:22;;;;;;;5.93;5.57;;;;;;;;;;4997188;28;20417;-70
2022/09/17 06:46:49;;;;;;;4.30;1.97;;;;;;;;;;4979784;28;20431;-71
2022/09/17 06:49:16;;;;;;;1.83;1.40;;;;;;;;;;4997542;28;20488;-69
2022/09/17 06:51:42;;;;;;;6.57;3.83;;;;;;;;;;4996965;28;20825;-71
2022/09/17 06:54:08;;;;;;;3.40;1.33;;;;;;;;;;4997058;28;20476;-69
2022/09/17 06:56:34;;;;;;;4.80;1.30;;;;;;;;;;4997078;28;20896;-70
2022/09/17 06:59:00;;;;;;;3.83;1.30;;;;;;;;;;4979638;28;20421;-70
2022/09/17 07:01:26;;;;;;;2.40;1.30;;;;;;;;;;4996925;28;20456;-70
2022/09/17 07:03:53;;;;;;;1.23;1.23;;;;;;;;;;4979385;28;20458;-70
2022/09/17 07:06:20;;;;;;;0.87;0.87;;;;;;;;;;4996957;28;20468;-70
2022/09/17 07:08:46;;;;;;;1.20;1.20;;;;;;;;;;4996736;28;20448;-70
2022/09/17 07:11:12;;;;;;;2.53;1.50;;;;;;;;;;4996499;28;20406;-70
2022/09/17 07:13:38;;;;;;;1.43;1.43;;;;;;;;;;4996649;28;20472;-71
2022/09/17 07:16:05;;;;;;;3.03;1.43;;;;;;;;;;4996614;28;20409;-71
2022/09/17 07:18:31;;;;;;;1.50;1.40;;;;;;;;;;4996669;28;20432;-70
2022/09/17 07:21:01;;;;;;;1.20;1.20;;;;;;;;;;4996645;28;20409;-71
2022/09/17 07:23:28;;;;;;;3.07;1.50;;;;;;;;;;4996549;28;20496;-70
2022/09/17 07:25:58;;;;;;;2.50;1.40;;;;;;;;;;4996536;28;20433;-71
2022/09/17 07:28:24;;;;;;;1.50;1.40;;;;;;;;;;4996563;28;20428;-69
2022/09/17 07:30:51;;;;;;;2.87;1.40;;;;;;;;;;4995848;28;20436;-72
2022/09/17 07:33:22;;;;;;;1.60;1.50;;;;;;;;;;4978835;28;20817;-70
2022/09/17 07:35:58;;;;;;;2.27;1.30;;;;;;;;;;4996372;28;20964;-70
2022/09/17 07:38:24;;;;;;;1.40;1.30;;;;;;;;;;4996245;28;20832;-70
2022/09/17 07:41:00;;;;;;;2.40;2.20;;;;;;;;;;4996297;28;20405;-70
2022/09/17 07:43:26;;;;;;;4.70;4.00;;;;;;;;;;4996224;28;20410;-70
2022/09/17 07:45:53;;;;;;;3.00;2.80;;;;;;;;;;4996261;28;20413;-70
2022/09/17 07:48:22;;;;;;;1.73;1.63;;;;;;;;;;4996077;28;20779;-70
2022/09/17 07:50:48;;;;;;;2.40;1.47;;;;;;;;;;4978568;28;20421;-70
2022/09/17 07:53:14;;;;;;;1.30;1.30;;;;;;;;;;4995773;28;20572;-70
2022/09/17 07:55:40;;;;;;;1.83;1.67;;;;;;;;;;4978518;28;20532;-69
2022/09/17 07:58:06;;;;;;;2.03;1.60;;;;;;;;;;4996026;28;20457;-70
2022/09/17 08:00:32;;;;;;;2.70;1.30;;;;;;;;;;4995906;28;20414;-70
2022/09/17 08:02:59;;;;;;;1.33;1.10;;;;;;;;;;4996097;28;20509;-70
2022/09/17 08:05:26;;;;;;;2.30;1.80;;;;;;;;;;4995817;28;20421;-70
2022/09/17 08:07:53;;;;;;;2.63;1.23;;;;;;;;;;4995927;28;20466;-70
2022/09/17 08:10:22;;;;;;;1.10;1.00;;;;;;;;;;4978287;28;20413;-70
2022/09/17 08:12:54;;;;;;;2.10;1.40;;;;;;;;;;4978192;28;20472;-70
2022/09/17 08:15:20;;;;;;;1.30;1.20;;;;;;;;;;4978227;28;20560;-71
2022/09/17 08:17:46;;;;;;;1.20;1.20;;;;;;;;;;4978051;28;20483;-70
2022/09/17 08:20:13;;;;;;;1.53;1.50;;;;;;;;;;4978111;28;20976;-69
2022/09/17 08:22:39;;;;;;;5.10;2.37;;;;;;;;;;4995465;28;20421;-70
2022/09/17 08:25:05;;;;;;;16.77;11.73;;;;;;;;;;4995466;28;20561;-70
2022/09/17 08:27:32;;;;;;;4.60;3.90;;;;;;;;;;4995462;28;20437;-70
2022/09/17 08:29:58;;;;;;;6.53;3.50;;;;;;;;;;4977873;28;20421;-70
2022/09/17 08:32:24;;;;;;;2.50;1.50;;;;;;;;;;4995121;28;20492;-70
2022/09/17 08:34:52;;;;;;;1.83;1.50;;;;;;;;;;4995263;28;20433;-69
2022/09/17 08:37:18;;;;;;;3.53;1.47;;;;;;;;;;4995303;28;20393;-70
2022/09/17 08:39:44;;;;;;;1.83;1.67;;;;;;;;;;4995210;28;20412;-70
2022/09/17 08:42:23;;;;;;;1.40;1.30;;;;;;;;;;4994320;28;20402;-70
2022/09/17 08:44:49;;;;;;;1.00;1.00;;;;;;;;;;4995035;28;20413;-69
2022/09/17 08:47:36;;;;;;;1.43;1.33;;;;;;;;;;4977634;28;20445;-70
2022/09/17 08:50:04;;;;;;;6.63;1.70;;;;;;;;;;4977444;28;20426;-70
2022/09/17 08:52:36;;;;;;;3.27;1.73;;;;;;;;;;4994718;28;20465;-69
2022/09/17 08:55:37;;;;;;;2.37;1.43;;;;;;;;;;4994928;28;20426;-70
2022/09/17 08:58:03;;;;;;;2.57;1.67;;;;;;;;;;4897031;29;20441;-69
2022/09/17 09:00:41;;;;;;;2.03;1.20;;;;;;;;;;4974936;28;20515;-70
2022/09/17 09:03:10;;;;;;;0.97;0.97;;;;;;;;;;4994775;28;20425;-72
2022/09/17 09:05:42;;;;;;;2.50;1.40;;;;;;;;;;4977292;28;20414;-69
2022/09/17 09:08:14;;;;;;;2.50;1.30;;;;;;;;;;4994621;28;20414;-72
2022/09/17 09:10:50;;;;;;;2.20;1.30;;;;;;;;;;4994629;28;20410;-70
2022/09/17 09:13:17;;;;;;;2.83;1.77;;;;;;;;;;4994484;28;20473;-69
2022/09/17 09:15:44;;;;;;;1.10;1.00;;;;;;;;;;4994458;28;20445;-70
2022/09/17 09:18:18;;;;;;;3.20;1.50;;;;;;;;;;4994435;28;20429;-69
2022/09/17 09:20:44;;;;;;;1.90;1.20;;;;;;;;;;4976856;28;20465;-68
2022/09/17 09:23:17;;;;;;;1.50;1.40;;;;;;;;;;4994400;28;20461;-69
2022/09/17 09:25:51;;;;;;;1.30;1.30;;;;;;;;;;4994249;28;20506;-70
2022/09/17 09:28:26;;;;;;;3.43;1.40;;;;;;;;;;4994219;28;20763;-69
2022/09/17 09:30:58;;;;;;;1.37;1.27;;;;;;;;;;4976748;28;20417;-68
2022/09/17 09:33:30;;;;;;;1.20;1.20;;;;;;;;;;4993971;28;20527;-68
2022/09/17 09:35:56;;;;;;;1.43;1.30;;;;;;;;;;4994172;28;20406;-69
2022/09/17 09:38:25;;;;;;;4.07;1.40;;;;;;;;;;4994045;28;20419;-69
2022/09/17 09:41:00;;;;;;;2.17;1.50;;;;;;;;;;4994128;28;20766;-69
2022/09/17 09:43:29;;;;;;;5.10;2.67;;;;;;;;;;4976676;28;20413;-68
2022/09/17 09:46:04;;;;;;;4.07;3.00;;;;;;;;;;4994009;28;20460;-69
2022/09/17 09:48:33;;;;;;;2.47;1.63;;;;;;;;;;4994027;28;20436;-68
2022/09/17 09:51:16;;;;;;;6.53;1.93;;;;;;;;;;4993780;28;20425;-68
2022/09/17 09:53:51;;;;;;;3.90;2.20;;;;;;;;;;4993538;28;20473;-69
2022/09/17 09:56:33;;;;;;;2.47;2.33;;;;;;;;;;4993938;28;20777;-68
2022/09/17 09:59:00;;;;;;;2.03;1.60;;;;;;;;;;4976752;28;20794;-70
2022/09/17 10:01:27;;;;;;;6.67;2.97;;;;;;;;;;4993964;28;20406;-73
2022/09/17 10:03:56;;;;;;;2.90;2.00;;;;;;;;;;4993879;28;20770;-69
2022/09/17 10:06:23;;;;;;;5.20;1.80;;;;;;;;;;4976816;28;20887;-70
2022/09/17 10:08:55;;;;;;;2.87;1.90;;;;;;;;;;4993781;28;20743;-69
2022/09/17 10:11:21;;;;;;;3.20;2.13;;;;;;;;;;4993830;28;20427;-68
2022/09/17 10:13:47;;;;;;;2.63;1.93;;;;;;;;;;4993639;28;20970;-68
2022/09/17 10:16:19;;;;;;;3.47;1.63;;;;;;;;;;4993721;28;20396;-70
2022/09/17 10:18:45;;;;;;;1.20;1.20;;;;;;;;;;4993766;28;20764;-72
2022/09/17 10:21:22;;;;;;;1.90;1.80;;;;;;;;;;4993719;28;20404;-70
2022/09/17 10:23:49;;;;;;;3.17;2.80;;;;;;;;;;4993668;28;20466;-69
2022/09/17 10:26:22;;;;;;;1.97;1.60;;;;;;;;;;4993705;28;20461;-71
2022/09/17 10:28:50;;;;;;;1.63;1.40;;;;;;;;;;4993691;28;20415;-69
2022/09/17 10:31:16;;;;;;;3.93;1.47;;;;;;;;;;4976216;28;20486;-69
2022/09/17 10:33:57;;;;;;;1.97;1.90;;;;;;;;;;4993562;28;21006;-69
2022/09/17 10:36:39;;;;;;;8.13;1.30;;;;;;;;;;4993829;28;20496;-71
2022/09/17 10:39:23;;;;;;;5.33;1.33;;;;;;;;;;4993657;28;20391;-73
2022/09/17 10:41:56;;;;;;;1.57;1.47;;;;;;;;;;4993638;28;20437;-70
2022/09/17 10:44:23;;;;;;;5.17;1.13;;;;;;;;;;4993579;28;20400;-68
2022/09/17 10:46:50;;;;;;;1.80;1.40;;;;;;;;;;4993519;28;20422;-68
2022/09/17 10:49:37;;;;;;;1.93;1.20;;;;;;;;;;4993512;28;20424;-69
2022/09/17 10:52:04;;;;;;;4.60;1.20;;;;;;;;;;4996000;28;21013;-69
2022/09/17 10:54:42;;;;;;;1.13;1.13;;;;;;;;;;5009696;28;20482;-68
2022/09/17 10:57:09;;;;;;;1.90;1.50;;;;;;;;;;4992700;28;20419;-69
2022/09/17 11:00:01;;;;;;;1.60;1.50;;;;;;;;;;5010101;28;20432;-72
2022/09/17 11:02:27;;;;;;;1.13;1.10;;;;;;;;;;5012895;28;20821;-74
2022/09/17 11:04:59;;;;;;;3.60;1.20;;;;;;;;;;5009151;28;20442;-76
2022/09/17 11:07:33;;;;;;;5.03;1.30;;;;;;;;;;5000724;28;20489;-73
2022/09/17 11:10:03;;;;;;;2.13;1.60;;;;;;;;;;5014111;28;20431;-68
2022/09/17 11:12:29;;;;;;;3.13;2.87;;;;;;;;;;5013172;28;20428;-71
2022/09/17 11:15:17;;;;;;;3.10;2.10;;;;;;;;;;4997529;28;20427;-74
2022/09/17 11:17:57;;;;;;;1.50;1.40;;;;;;;;;;5016081;28;20521;-73
2022/09/17 11:20:41;;;;;;;1.73;1.17;;;;;;;;;;5016249;28;20408;-73
2022/09/17 11:23:16;;;;;;;1.80;1.10;;;;;;;;;;5014250;28;20804;-74
2022/09/17 11:25:55;;;;;;;2.20;1.30;;;;;;;;;;5015769;28;20439;-72
2022/09/17 11:28:30;;;;;;;3.47;1.07;;;;;;;;;;5014873;28;20427;-75
2022/09/17 11:31:02;;;;;;;1.47;1.37;;;;;;;;;;5014902;28;20746;-73
2022/09/17 11:33:31;;;;;;;3.80;1.07;;;;;;;;;;5014573;28;20835;-75
2022/09/17 11:36:01;;;;;;;1.77;1.37;;;;;;;;;;5014842;28;20425;-73
2022/09/17 11:38:33;;;;;;;1.43;1.10;;;;;;;;;;5015928;28;20466;-72
2022/09/17 11:41:01;;;;;;;1.40;1.17;;;;;;;;;;5015870;28;20422;-73
2022/09/17 11:43:29;;;;;;;1.23;0.97;;;;;;;;;;5015902;28;20421;-73
2022/09/17 11:46:10;;;;;;;1.17;1.10;;;;;;;;;;5010615;28;20450;-71
2022/09/17 11:48:47;;;;;;;2.03;1.50;;;;;;;;;;4978684;28;20423;-70
2022/09/17 11:51:32;;;;;;;3.80;1.30;;;;;;;;;;4995881;28;20452;-70
2022/09/17 11:53:58;;;;;;;2.30;1.00;;;;;;;;;;4978562;28;20541;-70
2022/09/17 11:56:31;;;;;;;3.43;1.20;;;;;;;;;;4996036;28;20421;-72
2022/09/17 11:59:05;;;;;;;2.93;1.73;;;;;;;;;;4978578;28;20436;-70
2022/09/17 12:01:50;;;;;;;1.17;1.17;;;;;;;;;;4995939;28;20409;-71
2022/09/17 12:04:35;;;;;;;1.17;1.00;;;;;;;;;;4995845;28;20427;-70
2022/09/17 12:07:10;;;;;;;1.83;1.10;;;;;;;;;;4978403;28;20939;-71
2022/09/17 12:09:37;;;;;;;3.13;1.57;;;;;;;;;;4978295;28;20424;-71
2022/09/17 12:12:10;;;;;;;1.30;1.20;;;;;;;;;;4978338;28;20435;-73
2022/09/17 12:14:56;;;;;;;3.27;1.40;;;;;;;;;;4978238;28;20508;-70
2022/09/17 12:17:27;;;;;;;1.40;1.30;;;;;;;;;;4995287;28;20490;-71
2022/09/17 12:20:07;;;;;;;5.83;1.47;;;;;;;;;;4995647;28;20419;-69
2022/09/17 12:22:35;;;;;;;1.10;1.00;;;;;;;;;;4995669;28;20442;-71
2022/09/17 12:25:02;;;;;;;2.00;1.10;;;;;;;;;;4995485;28;20515;-70
2022/09/17 12:27:46;;;;;;;1.47;1.37;;;;;;;;;;4995608;28;20439;-71
2022/09/17 12:30:20;;;;;;;1.90;1.17;;;;;;;;;;4977984;28;20440;-72
2022/09/17 12:33:05;;;;;;;2.03;0.90;;;;;;;;;;4995179;28;20971;-72
2022/09/17 12:35:46;;;;;;;1.80;0.80;;;;;;;;;;4995592;28;20417;-71
2022/09/17 12:38:27;;;;;;;0.80;0.80;;;;;;;;;;4995250;28;20417;-72
2022/09/17 12:40:57;;;;;;;0.97;0.97;;;;;;;;;;4995200;28;20428;-72
2022/09/17 12:43:28;;;;;;;0.90;0.90;;;;;;;;;;4995119;28;20408;-72
2022/09/17 12:46:00;;;;;;;1.43;0.80;;;;;;;;;;4995128;28;20420;-71
2022/09/17 12:48:39;;;;;;;4.93;0.80;;;;;;;;;;4994962;28;20416;-70
2022/09/17 12:51:11;;;;;;;0.77;0.77;;;;;;;;;;4994768;28;20498;-70
2022/09/17 12:53:48;;;;;;;0.77;0.77;;;;;;;;;;4994782;28;20623;-70
2022/09/17 12:56:17;;;;;;;1.57;0.90;;;;;;;;;;4994840;28;20421;-71
2022/09/17 12:58:45;;;;;;;0.90;0.90;;;;;;;;;;4977358;28;20448;-70
2022/09/17 13:01:30;;;;;;;1.20;1.10;;;;;;;;;;4994723;28;20607;-69
2022/09/17 13:04:10;;;;;;;1.30;1.23;;;;;;;;;;4994839;28;20448;-70
2022/09/17 13:07:01;;;;;;;1.07;1.00;;;;;;;;;;4994702;28;20970;-71
2022/09/17 13:09:37;;;;;;;8.83;1.27;;;;;;;;;;4994624;28;20413;-70
2022/09/17 13:12:29;;;;;;;1.37;0.90;;;;;;;;;;4994673;28;20915;-70
2022/09/17 13:15:10;;;;;;;0.87;0.87;;;;;;;;;;4990224;28;20983;-70
2022/09/17 13:17:42;;;;;;;2.30;0.97;;;;;;;;;;4994475;28;20424;-70
2022/09/17 13:20:11;;;;;;;0.83;0.80;;;;;;;;;;4994575;28;20400;-70
2022/09/17 13:22:44;;;;;;;0.77;0.77;;;;;;;;;;4994431;28;20406;-71
2022/09/17 13:25:11;;;;;;;3.67;1.00;;;;;;;;;;4994465;28;20414;-72
2022/09/17 13:27:37;;;;;;;2.10;1.00;;;;;;;;;;4976882;28;20423;-71
2022/09/17 13:30:07;;;;;;;1.80;1.30;;;;;;;;;;4993911;28;20420;-69
2022/09/17 13:32:36;;;;;;;1.30;0.80;;;;;;;;;;4976829;28;20425;-70
2022/09/17 13:35:13;;;;;;;1.00;0.80;;;;;;;;;;4994330;28;20416;-70
2022/09/17 13:37:43;;;;;;;2.77;0.80;;;;;;;;;;4994313;28;20409;-70
2022/09/17 13:40:20;;;;;;;1.10;1.00;;;;;;;;;;4994186;28;20885;-70
2022/09/17 13:42:47;;;;;;;1.33;1.00;;;;;;;;;;4994102;28;20409;-69
2022/09/17 13:45:15;;;;;;;2.33;0.93;;;;;;;;;;4994158;28;20497;-69
2022/09/17 13:47:52;;;;;;;1.50;0.97;;;;;;;;;;4994117;28;20911;-69
2022/09/17 13:50:29;;;;;;;3.33;0.80;;;;;;;;;;4976741;28;20449;-69
2022/09/17 13:53:05;;;;;;;1.13;1.00;;;;;;;;;;4993809;28;20547;-69
2022/09/17 13:55:33;;;;;;;2.63;0.90;;;;;;;;;;4994080;28;20926;-70
2022/09/17 13:58:00;;;;;;;1.37;0.83;;;;;;;;;;4994089;28;20903;-70
2022/09/17 14:00:46;;;;;;;0.90;0.90;;;;;;;;;;4994026;28;20419;-69
2022/09/17 14:03:32;;;;;;;2.20;0.93;;;;;;;;;;4993996;28;20416;-69
2022/09/17 14:06:05;;;;;;;1.80;1.27;;;;;;;;;;4976509;28;20483;-69
2022/09/17 14:08:31;;;;;;;1.10;1.00;;;;;;;;;;4993952;28;20414;-70
2022/09/17 14:11:01;;;;;;;1.70;0.67;;;;;;;;;;4976549;28;20899;-70
2022/09/17 14:13:41;;;;;;;0.90;0.90;;;;;;;;;;4993913;28;20468;-72
2022/09/17 14:16:24;;;;;;;0.90;0.90;;;;;;;;;;4994173;28;20488;-72
2022/09/17 14:18:57;;;;;;;1.23;0.90;;;;;;;;;;4994121;28;20470;-72
2022/09/17 14:21:25;;;;;;;2.30;0.77;;;;;;;;;;4976438;28;20786;-71
2022/09/17 14:23:56;;;;;;;0.97;0.97;;;;;;;;;;4993536;28;20910;-72
2022/09/17 14:26:34;;;;;;;3.27;2.27;;;;;;;;;;4994031;28;20424;-74
2022/09/17 14:29:15;;;;;;;1.80;1.00;;;;;;;;;;4993630;28;20855;-73
2022/09/17 14:31:41;;;;;;;1.03;0.90;;;;;;;;;;4993783;28;20406;-72
2022/09/17 14:34:10;;;;;;;0.80;0.80;;;;;;;;;;4993675;28;20465;-73
2022/09/17 14:36:38;;;;;;;1.73;1.30;;;;;;;;;;4976392;28;20791;-71
2022/09/17 14:39:05;;;;;;;0.70;0.70;;;;;;;;;;4976274;28;20428;-72
2022/09/17 14:41:34;;;;;;;0.87;0.87;;;;;;;;;;4996038;28;20412;-72
2022/09/17 14:44:05;;;;;;;1.47;0.90;;;;;;;;;;4997398;28;20951;-70
2022/09/17 14:46:34;;;;;;;3.37;0.80;;;;;;;;;;4997321;28;20443;-69
2022/09/17 14:49:19;;;;;;;1.27;1.20;;;;;;;;;;4997422;28;20414;-70
2022/09/17 14:51:46;;;;;;;0.83;0.80;;;;;;;;;;4997089;28;20473;-70
2022/09/17 14:54:17;;;;;;;0.60;0.50;;;;;;;;;;4997318;28;20861;-69
2022/09/17 14:56:45;;;;;;;0.77;0.70;;;;;;;;;;4997473;28;20415;-70
2022/09/17 14:59:19;;;;;;;2.70;1.00;;;;;;;;;;4997124;28;20449;-70
2022/09/17 15:01:47;;;;;;;1.77;0.70;;;;;;;;;;4997039;28;20885;-70